createdAt,value
2017-09-05T00:00:27.379Z,13.55
2017-09-05T00:01:36.552Z,13.55
2017-09-05T00:02:45.398Z,13.51
2017-09-05T00:03:54.289Z,13.55
2017-09-05T00:05:03.131Z,13.55
2017-09-05T00:06:11.974Z,13.55
2017-09-05T00:07:20.818Z,13.51
2017-09-05T00:08:29.658Z,13.46
2017-09-05T00:09:38.651Z,13.46
2017-09-05T00:10:47.491Z,13.52
2017-09-05T00:11:56.672Z,13.52
2017-09-05T00:13:05.516Z,13.51
2017-09-05T00:14:14.358Z,13.54
2017-09-05T00:15:23.352Z,13.63
2017-09-05T00:16:32.196Z,13.49
2017-09-05T00:17:41.036Z,13.45
2017-09-05T00:18:49.881Z,13.57
2017-09-05T00:19:58.724Z,13.63
2017-09-05T00:21:07.719Z,13.62
2017-09-05T00:22:16.562Z,13.57
2017-09-05T00:23:25.407Z,13.52
2017-09-05T00:24:34.261Z,13.51
2017-09-05T00:25:43.095Z,13.49
2017-09-05T00:26:52.039Z,13.46
2017-09-05T00:28:00.881Z,13.49
2017-09-05T00:29:09.728Z,13.51
2017-09-05T00:30:18.572Z,13.45
2017-09-05T00:31:27.413Z,13.45
2017-09-05T00:32:36.407Z,13.48
2017-09-05T00:33:45.250Z,13.39
2017-09-05T00:34:54.091Z,13.38
2017-09-05T00:36:02.934Z,13.3
2017-09-05T00:37:11.776Z,13.41
2017-09-05T00:38:20.669Z,13.3
2017-09-05T00:39:29.515Z,13.28
2017-09-05T00:40:38.357Z,13.38
2017-09-05T00:41:47.202Z,13.25
2017-09-05T00:42:56.379Z,13.29
2017-09-05T00:44:05.273Z,13.15
2017-09-05T00:45:14.112Z,13.19
2017-09-05T00:46:22.962Z,13.14
2017-09-05T00:47:31.802Z,13.22
2017-09-05T00:48:40.644Z,13.2
2017-09-05T00:49:49.634Z,13.22
2017-09-05T00:50:58.477Z,13.17
2017-09-05T00:52:07.318Z,13.14
2017-09-05T00:53:16.159Z,13.15
2017-09-05T00:54:25.002Z,13.14
2017-09-05T00:55:33.897Z,13.1
2017-09-05T00:56:42.740Z,13.04
2017-09-05T00:57:51.583Z,13.01
2017-09-05T00:59:00.427Z,13.03
2017-09-05T01:00:09.268Z,13.08
2017-09-05T01:01:18.163Z,13.01
2017-09-05T01:02:27.002Z,13.03
2017-09-05T01:03:35.843Z,13.07
2017-09-05T01:04:44.687Z,13.04
2017-09-05T01:05:53.529Z,13.03
2017-09-05T01:07:02.473Z,12.97
2017-09-05T01:08:11.317Z,13
2017-09-05T01:09:20.156Z,12.96
2017-09-05T01:10:29.001Z,13
2017-09-05T01:11:37.845Z,13.05
2017-09-05T01:12:46.841Z,12.97
2017-09-05T01:13:55.683Z,12.96
2017-09-05T01:15:04.527Z,12.95
2017-09-05T01:16:13.370Z,12.97
2017-09-05T01:17:22.213Z,13.05
2017-09-05T01:18:31.156Z,12.93
2017-09-05T01:19:39.998Z,12.9
2017-09-05T01:20:48.841Z,12.89
2017-09-05T01:21:57.681Z,12.9
2017-09-05T01:23:06.526Z,12.9
2017-09-05T01:24:15.521Z,12.87
2017-09-05T01:25:24.365Z,12.82
2017-09-05T01:26:33.204Z,12.87
2017-09-05T01:27:42.053Z,12.92
2017-09-05T01:28:50.892Z,12.82
2017-09-05T01:29:59.888Z,12.83
2017-09-05T01:31:08.732Z,12.82
2017-09-05T01:32:17.573Z,12.75
2017-09-05T01:33:26.414Z,12.77
2017-09-05T01:34:35.257Z,12.82
2017-09-05T01:35:44.200Z,12.75
2017-09-05T01:36:53.041Z,12.64
2017-09-05T01:38:01.887Z,12.67
2017-09-05T01:39:10.728Z,12.65
2017-09-05T01:40:19.573Z,12.7
2017-09-05T01:41:28.468Z,12.68
2017-09-05T01:42:37.311Z,12.71
2017-09-05T01:43:46.152Z,12.65
2017-09-05T01:44:54.995Z,12.72
2017-09-05T01:46:03.836Z,12.56
2017-09-05T01:47:12.680Z,12.52
2017-09-05T01:48:21.525Z,12.6
2017-09-05T01:49:30.370Z,12.64
2017-09-05T01:50:39.214Z,12.59
2017-09-05T01:51:48.059Z,12.53
2017-09-05T01:52:56.949Z,12.49
2017-09-05T01:54:05.794Z,12.5
2017-09-05T01:55:14.636Z,12.45
2017-09-05T01:56:23.483Z,12.5
2017-09-05T01:57:32.655Z,12.41
2017-09-05T01:58:41.548Z,12.5
2017-09-05T01:59:50.392Z,12.42
2017-09-05T02:00:59.237Z,12.49
2017-09-05T02:02:08.081Z,12.49
2017-09-05T02:03:16.925Z,12.54
2017-09-05T02:04:25.915Z,12.49
2017-09-05T02:05:34.759Z,12.46
2017-09-05T02:06:43.600Z,12.42
2017-09-05T02:07:52.445Z,12.38
2017-09-05T02:09:01.288Z,12.45
2017-09-05T02:10:10.332Z,12.47
2017-09-05T02:11:19.177Z,12.37
2017-09-05T02:12:28.020Z,12.35
2017-09-05T02:13:36.865Z,12.42
2017-09-05T02:14:46.042Z,12.38
2017-09-05T02:15:54.937Z,12.34
2017-09-05T02:17:03.778Z,12.28
2017-09-05T02:18:12.622Z,12.23
2017-09-05T02:19:21.465Z,12.29
2017-09-05T02:20:30.310Z,12.24
2017-09-05T02:21:39.253Z,12.32
2017-09-05T02:22:48.094Z,12.24
2017-09-05T02:23:56.935Z,12.28
2017-09-05T02:25:05.778Z,12.2
2017-09-05T02:26:14.619Z,12.14
2017-09-05T02:27:23.947Z,12.17
2017-09-05T02:28:32.788Z,12.17
2017-09-05T02:29:41.631Z,12.19
2017-09-05T02:30:50.473Z,12.17
2017-09-05T02:31:59.648Z,12.14
2017-09-05T02:33:08.644Z,12.16
2017-09-05T02:34:17.485Z,12.12
2017-09-05T02:35:26.328Z,12.16
2017-09-05T02:36:35.170Z,12.04
2017-09-05T02:37:44.016Z,12.16
2017-09-05T02:38:53.014Z,12.1
2017-09-05T02:40:01.854Z,12.09
2017-09-05T02:41:10.701Z,12.07
2017-09-05T02:42:19.595Z,12.04
2017-09-05T02:43:28.439Z,12.12
2017-09-05T02:44:37.429Z,12.14
2017-09-05T02:45:46.274Z,12.1
2017-09-05T02:46:55.121Z,12.07
2017-09-05T02:48:03.966Z,12.07
2017-09-05T02:49:12.811Z,12.02
2017-09-05T02:50:21.705Z,12.1
2017-09-05T02:51:30.549Z,11.94
2017-09-05T02:52:39.396Z,12.07
2017-09-05T02:53:48.242Z,12.05
2017-09-05T02:54:57.085Z,12.09
2017-09-05T02:56:06.308Z,11.91
2017-09-05T02:57:15.155Z,11.91
2017-09-05T02:58:24.000Z,11.91
2017-09-05T02:59:32.841Z,11.98
2017-09-05T03:00:41.685Z,11.95
2017-09-05T03:01:50.677Z,12.02
2017-09-05T03:02:59.522Z,12.04
2017-09-05T03:04:08.363Z,11.9
2017-09-05T03:05:17.209Z,12.04
2017-09-05T03:06:26.053Z,12.01
2017-09-05T03:07:35.048Z,11.94
2017-09-05T03:08:43.889Z,11.98
2017-09-05T03:09:52.732Z,11.94
2017-09-05T03:11:01.572Z,11.88
2017-09-05T03:12:10.415Z,11.86
2017-09-05T03:13:19.406Z,11.91
2017-09-05T03:14:28.250Z,11.88
2017-09-05T03:15:37.093Z,11.9
2017-09-05T03:16:45.937Z,11.83
2017-09-05T03:17:54.781Z,11.78
2017-09-05T03:19:03.873Z,11.76
2017-09-05T03:20:12.718Z,11.8
2017-09-05T03:21:21.562Z,11.76
2017-09-05T03:22:30.407Z,11.76
2017-09-05T03:23:39.250Z,11.76
2017-09-05T03:24:48.244Z,11.8
2017-09-05T03:25:57.425Z,11.75
2017-09-05T03:27:06.271Z,11.75
2017-09-05T03:28:15.116Z,11.8
2017-09-05T03:29:23.961Z,11.9
2017-09-05T03:30:32.954Z,11.69
2017-09-05T03:31:41.797Z,11.82
2017-09-05T03:32:50.988Z,11.79
2017-09-05T03:33:59.831Z,11.79
2017-09-05T03:35:08.672Z,11.79
2017-09-05T03:36:17.761Z,11.75
2017-09-05T03:37:26.602Z,11.72
2017-09-05T03:38:35.442Z,11.8
2017-09-05T03:39:44.281Z,11.79
2017-09-05T03:40:53.122Z,11.82
2017-09-05T03:42:02.114Z,11.79
2017-09-05T03:43:10.954Z,11.76
2017-09-05T03:44:19.796Z,11.82
2017-09-05T03:45:28.636Z,11.7
2017-09-05T03:46:37.475Z,11.79
2017-09-05T03:47:46.366Z,11.78
2017-09-05T03:48:55.206Z,11.67
2017-09-05T03:50:04.044Z,11.67
2017-09-05T03:51:12.886Z,11.73
2017-09-05T03:52:21.725Z,11.72
2017-09-05T03:53:30.669Z,11.67
2017-09-05T03:54:39.509Z,11.73
2017-09-05T03:55:48.348Z,11.76
2017-09-05T03:56:57.189Z,11.67
2017-09-05T03:58:06.031Z,11.72
2017-09-05T03:59:14.920Z,11.64
2017-09-05T04:00:23.761Z,11.65
2017-09-05T04:01:32.603Z,11.69
2017-09-05T04:02:41.445Z,11.67
2017-09-05T04:03:50.288Z,11.6
2017-09-05T04:04:59.234Z,11.61
2017-09-05T04:06:08.075Z,11.67
2017-09-05T04:07:16.918Z,11.6
2017-09-05T04:08:25.757Z,11.6
2017-09-05T04:09:34.603Z,11.58
2017-09-05T04:10:43.493Z,11.6
2017-09-05T04:11:52.334Z,11.65
2017-09-05T04:13:01.173Z,11.54
2017-09-05T04:14:10.016Z,11.6
2017-09-05T04:15:18.861Z,11.57
2017-09-05T04:16:27.787Z,11.62
2017-09-05T04:17:36.595Z,11.55
2017-09-05T04:18:45.774Z,11.54
2017-09-05T04:19:54.612Z,11.54
2017-09-05T04:21:03.461Z,11.49
2017-09-05T04:22:12.401Z,11.43
2017-09-05T04:23:21.245Z,11.51
2017-09-05T04:24:30.089Z,11.49
2017-09-05T04:25:38.931Z,11.49
2017-09-05T04:26:47.772Z,11.57
2017-09-05T04:27:56.763Z,11.46
2017-09-05T04:29:05.603Z,11.46
2017-09-05T04:30:14.444Z,11.43
2017-09-05T04:31:23.286Z,11.47
2017-09-05T04:32:32.128Z,11.47
2017-09-05T04:33:41.021Z,11.52
2017-09-05T04:34:49.865Z,11.51
2017-09-05T04:35:58.704Z,11.46
2017-09-05T04:37:07.546Z,11.49
2017-09-05T04:38:16.386Z,11.52
2017-09-05T04:39:25.274Z,11.46
2017-09-05T04:40:34.116Z,11.46
2017-09-05T04:41:42.957Z,11.37
2017-09-05T04:42:51.802Z,11.43
2017-09-05T04:44:00.642Z,11.44
2017-09-05T04:45:10.020Z,11.42
2017-09-05T04:46:18.864Z,11.36
2017-09-05T04:47:27.702Z,11.4
2017-09-05T04:48:36.545Z,11.39
2017-09-05T04:49:45.384Z,11.43
2017-09-05T04:50:54.226Z,11.37
2017-09-05T04:52:03.070Z,11.37
2017-09-05T04:53:11.913Z,11.43
2017-09-05T04:54:20.752Z,11.42
2017-09-05T04:55:29.594Z,11.36
2017-09-05T04:56:38.587Z,11.36
2017-09-05T04:57:47.425Z,11.4
2017-09-05T04:58:56.266Z,11.32
2017-09-05T05:00:05.107Z,11.46
2017-09-05T05:01:13.955Z,11.36
2017-09-05T05:02:22.843Z,11.39
2017-09-05T05:03:31.684Z,11.4
2017-09-05T05:04:40.524Z,11.36
2017-09-05T05:05:49.366Z,11.39
2017-09-05T05:06:58.211Z,11.4
2017-09-05T05:08:07.205Z,11.43
2017-09-05T05:09:16.052Z,11.4
2017-09-05T05:10:25.224Z,11.43
2017-09-05T05:11:34.074Z,11.44
2017-09-05T05:12:43.255Z,11.47
2017-09-05T05:13:52.256Z,11.43
2017-09-05T05:15:01.100Z,11.46
2017-09-05T05:16:09.946Z,11.49
2017-09-05T05:17:18.793Z,11.46
2017-09-05T05:18:27.631Z,11.52
2017-09-05T05:19:36.624Z,11.52
2017-09-05T05:20:45.465Z,11.42
2017-09-05T05:21:54.319Z,11.49
2017-09-05T05:23:03.324Z,11.52
2017-09-05T05:24:12.165Z,11.52
2017-09-05T05:25:21.009Z,11.58
2017-09-05T05:26:29.853Z,11.57
2017-09-05T05:27:38.705Z,11.57
2017-09-05T05:28:47.547Z,11.65
2017-09-05T05:29:56.393Z,11.58
2017-09-05T05:31:05.240Z,11.69
2017-09-05T05:32:14.081Z,11.6
2017-09-05T05:33:22.924Z,11.61
2017-09-05T05:34:31.765Z,11.64
2017-09-05T05:35:40.609Z,11.62
2017-09-05T05:36:49.451Z,11.69
2017-09-05T05:37:58.293Z,11.73
2017-09-05T05:39:07.136Z,11.7
2017-09-05T05:40:15.977Z,11.75
2017-09-05T05:41:24.822Z,11.82
2017-09-05T05:42:33.665Z,11.76
2017-09-05T05:43:42.528Z,11.75
2017-09-05T05:44:51.370Z,11.73
2017-09-05T05:46:00.214Z,11.78
2017-09-05T05:47:09.060Z,11.8
2017-09-05T05:48:17.902Z,11.91
2017-09-05T05:49:26.746Z,11.86
2017-09-05T05:50:35.691Z,11.95
2017-09-05T05:51:44.534Z,11.86
2017-09-05T05:52:53.378Z,11.95
2017-09-05T05:54:02.217Z,11.99
2017-09-05T05:55:11.062Z,12.07
2017-09-05T05:56:20.158Z,12.1
2017-09-05T05:57:29.333Z,12.12
2017-09-05T05:58:38.175Z,12.17
2017-09-05T05:59:47.019Z,12.1
2017-09-05T06:00:55.861Z,12.13
2017-09-05T06:02:04.853Z,12.29
2017-09-05T06:03:13.698Z,12.29
2017-09-05T06:04:22.542Z,12.2
2017-09-05T06:05:31.386Z,12.37
2017-09-05T06:06:40.229Z,12.35
2017-09-05T06:07:49.452Z,12.42
2017-09-05T06:08:58.293Z,12.45
2017-09-05T06:10:07.137Z,12.42
2017-09-05T06:11:15.980Z,12.41
2017-09-05T06:12:24.823Z,12.56
2017-09-05T06:13:33.916Z,12.57
2017-09-05T06:14:42.762Z,12.6
2017-09-05T06:15:51.607Z,12.52
2017-09-05T06:17:00.448Z,12.71
2017-09-05T06:18:09.296Z,12.79
2017-09-05T06:19:18.286Z,12.77
2017-09-05T06:20:27.134Z,12.78
2017-09-05T06:21:35.977Z,12.87
2017-09-05T06:22:44.817Z,12.96
2017-09-05T06:23:53.662Z,12.89
2017-09-05T06:25:02.610Z,12.89
2017-09-05T06:26:11.785Z,13
2017-09-05T06:27:20.631Z,13
2017-09-05T06:28:29.478Z,13.03
2017-09-05T06:29:38.321Z,13.19
2017-09-05T06:30:47.317Z,13.15
2017-09-05T06:31:56.161Z,13.14
2017-09-05T06:33:05.005Z,13.28
2017-09-05T06:34:13.851Z,13.25
2017-09-05T06:35:22.693Z,13.36
2017-09-05T06:36:31.789Z,13.38
2017-09-05T06:37:40.633Z,13.36
2017-09-05T06:38:49.477Z,13.38
2017-09-05T06:39:58.322Z,13.38
2017-09-05T06:41:07.166Z,13.41
2017-09-05T06:42:16.009Z,13.46
2017-09-05T06:43:24.853Z,13.49
2017-09-05T06:44:33.698Z,13.57
2017-09-05T06:45:42.544Z,13.52
2017-09-05T06:46:51.390Z,13.52
2017-09-05T06:48:00.382Z,13.55
2017-09-05T06:49:09.230Z,13.55
2017-09-05T06:50:18.076Z,13.7
2017-09-05T06:51:26.924Z,13.75
2017-09-05T06:52:35.768Z,13.71
2017-09-05T06:53:44.765Z,13.77
2017-09-05T06:54:53.611Z,13.77
2017-09-05T06:56:02.456Z,13.71
2017-09-05T06:57:11.301Z,13.81
2017-09-05T06:58:20.145Z,13.78
2017-09-05T06:59:29.390Z,13.89
2017-09-05T07:00:38.231Z,13.84
2017-09-05T07:01:47.080Z,13.87
2017-09-05T07:02:55.923Z,13.99
2017-09-05T07:04:04.773Z,13.96
2017-09-05T07:05:13.870Z,13.95
2017-09-05T07:06:22.716Z,14.06
2017-09-05T07:07:31.559Z,14.06
2017-09-05T07:08:40.403Z,13.96
2017-09-05T07:09:49.248Z,13.99
2017-09-05T07:10:58.145Z,14.06
2017-09-05T07:12:06.993Z,14.07
2017-09-05T07:13:15.837Z,14.2
2017-09-05T07:14:24.686Z,14.15
2017-09-05T07:15:33.533Z,14.18
2017-09-05T07:16:42.481Z,14.25
2017-09-05T07:17:51.325Z,14.27
2017-09-05T07:19:00.179Z,14.29
2017-09-05T07:20:09.026Z,14.42
2017-09-05T07:21:17.874Z,14.45
2017-09-05T07:22:26.772Z,14.43
2017-09-05T07:23:35.623Z,14.55
2017-09-05T07:24:44.468Z,14.51
2017-09-05T07:25:53.313Z,14.55
2017-09-05T07:27:02.159Z,14.57
2017-09-05T07:28:11.007Z,14.54
2017-09-05T07:29:19.852Z,14.62
2017-09-05T07:30:28.697Z,14.64
2017-09-05T07:31:37.543Z,14.65
2017-09-05T07:32:46.388Z,14.61
2017-09-05T07:33:55.383Z,14.78
2017-09-05T07:35:04.230Z,14.73
2017-09-05T07:36:13.073Z,14.96
2017-09-05T07:37:21.969Z,14.92
2017-09-05T07:38:31.147Z,14.96
2017-09-05T07:39:40.144Z,15.06
2017-09-05T07:40:48.990Z,15.09
2017-09-05T07:41:57.836Z,15.21
2017-09-05T07:43:07.012Z,15.32
2017-09-05T07:44:15.859Z,15.21
2017-09-05T07:45:24.856Z,15.21
2017-09-05T07:46:33.703Z,15.25
2017-09-05T07:47:42.547Z,15.25
2017-09-05T07:48:51.391Z,15.39
2017-09-05T07:50:00.237Z,15.43
2017-09-05T07:51:09.333Z,15.53
2017-09-05T07:52:18.185Z,15.62
2017-09-05T07:53:27.370Z,15.65
2017-09-05T07:54:36.219Z,15.65
2017-09-05T07:55:45.065Z,15.76
2017-09-05T07:56:54.060Z,15.84
2017-09-05T07:58:02.906Z,15.86
2017-09-05T07:59:11.755Z,15.93
2017-09-05T08:00:20.602Z,15.96
2017-09-05T08:01:29.450Z,15.93
2017-09-05T08:02:38.445Z,15.94
2017-09-05T08:03:47.294Z,16.02
2017-09-05T08:04:56.141Z,16.01
2017-09-05T08:06:04.994Z,16.07
2017-09-05T08:07:13.843Z,16.21
2017-09-05T08:08:22.890Z,16.35
2017-09-05T08:09:31.736Z,16.35
2017-09-05T08:10:40.584Z,16.39
2017-09-05T08:11:49.434Z,16.48
2017-09-05T08:12:58.286Z,16.39
2017-09-05T08:14:07.281Z,16.43
2017-09-05T08:15:16.130Z,16.48
2017-09-05T08:16:24.979Z,16.52
2017-09-05T08:17:33.827Z,16.7
2017-09-05T08:18:42.674Z,16.68
2017-09-05T08:19:51.570Z,16.82
2017-09-05T08:21:00.418Z,16.78
2017-09-05T08:22:09.265Z,16.79
2017-09-05T08:23:18.114Z,16.93
2017-09-05T08:24:26.961Z,17.01
2017-09-05T08:25:35.808Z,17.07
2017-09-05T08:26:44.659Z,16.98
2017-09-05T08:27:53.507Z,17.15
2017-09-05T08:29:02.356Z,17.12
2017-09-05T08:30:11.208Z,17.19
2017-09-05T08:31:20.256Z,17.21
2017-09-05T08:32:29.102Z,17.33
2017-09-05T08:33:37.950Z,17.25
2017-09-05T08:34:46.805Z,17.33
2017-09-05T08:35:55.647Z,17.4
2017-09-05T08:37:04.646Z,17.51
2017-09-05T08:38:13.494Z,17.58
2017-09-05T08:39:22.676Z,17.59
2017-09-05T08:40:31.523Z,17.71
2017-09-05T08:41:40.370Z,17.63
2017-09-05T08:42:49.267Z,17.68
2017-09-05T08:43:58.115Z,17.79
2017-09-05T08:45:06.963Z,17.9
2017-09-05T08:46:15.811Z,17.82
2017-09-05T08:47:24.659Z,17.81
2017-09-05T08:48:33.656Z,17.74
2017-09-05T08:49:42.503Z,17.79
2017-09-05T08:50:51.351Z,17.77
2017-09-05T08:52:00.199Z,17.9
2017-09-05T08:53:09.047Z,17.92
2017-09-05T08:54:17.942Z,17.95
2017-09-05T08:55:26.788Z,18
2017-09-05T08:56:35.636Z,18.05
2017-09-05T08:57:44.487Z,18.21
2017-09-05T08:58:53.337Z,18.15
2017-09-05T09:00:02.337Z,18.2
2017-09-05T09:01:11.185Z,18.23
2017-09-05T09:02:20.036Z,18.21
2017-09-05T09:03:29.224Z,18.35
2017-09-05T09:04:38.072Z,18.39
2017-09-05T09:05:46.969Z,18.47
2017-09-05T09:06:56.157Z,18.57
2017-09-05T09:08:05.007Z,18.54
2017-09-05T09:09:13.856Z,18.63
2017-09-05T09:10:22.702Z,18.7
2017-09-05T09:11:31.699Z,18.69
2017-09-05T09:12:40.548Z,18.9
2017-09-05T09:13:49.399Z,18.84
2017-09-05T09:14:58.247Z,18.98
2017-09-05T09:16:07.095Z,18.94
2017-09-05T09:17:15.995Z,18.9
2017-09-05T09:18:24.845Z,19.08
2017-09-05T09:19:33.694Z,19.07
2017-09-05T09:20:42.544Z,19.08
2017-09-05T09:21:51.393Z,19.21
2017-09-05T09:23:00.493Z,19.21
2017-09-05T09:24:09.341Z,19.23
2017-09-05T09:25:18.190Z,19.22
2017-09-05T09:26:27.042Z,19.29
2017-09-05T09:27:36.298Z,19.39
2017-09-05T09:28:45.199Z,19.41
2017-09-05T09:29:54.048Z,19.37
2017-09-05T09:31:02.900Z,19.43
2017-09-05T09:32:11.751Z,19.51
2017-09-05T09:33:20.602Z,19.61
2017-09-05T09:34:29.935Z,19.59
2017-09-05T09:35:38.784Z,19.56
2017-09-05T09:36:47.636Z,19.69
2017-09-05T09:37:56.480Z,19.66
2017-09-05T09:39:05.333Z,19.62
2017-09-05T09:40:14.283Z,19.74
2017-09-05T09:41:23.468Z,19.73
2017-09-05T09:42:32.321Z,19.76
2017-09-05T09:43:41.171Z,19.8
2017-09-05T09:44:50.022Z,19.92
2017-09-05T09:45:59.404Z,19.96
2017-09-05T09:47:08.253Z,19.98
2017-09-05T09:48:17.107Z,20.02
2017-09-05T09:49:25.954Z,20.06
2017-09-05T09:50:34.805Z,20.03
2017-09-05T09:51:43.707Z,20.08
2017-09-05T09:52:52.555Z,20.1
2017-09-05T09:54:01.406Z,20.02
2017-09-05T09:55:10.263Z,20.02
2017-09-05T09:56:19.116Z,20.1
2017-09-05T09:57:28.074Z,20.17
2017-09-05T09:58:36.926Z,20.18
2017-09-05T09:59:45.778Z,20.18
2017-09-05T10:00:54.628Z,20.17
2017-09-05T10:02:03.478Z,20.33
2017-09-05T10:03:12.477Z,20.31
2017-09-05T10:04:21.330Z,20.35
2017-09-05T10:05:30.183Z,20.31
2017-09-05T10:06:39.038Z,20.31
2017-09-05T10:07:48.222Z,20.33
2017-09-05T10:08:57.122Z,20.35
2017-09-05T10:10:05.972Z,20.48
2017-09-05T10:11:14.825Z,20.47
2017-09-05T10:12:24.010Z,20.51
2017-09-05T10:13:33.194Z,20.5
2017-09-05T10:14:42.246Z,20.52
2017-09-05T10:15:51.096Z,20.51
2017-09-05T10:16:59.947Z,20.58
2017-09-05T10:18:08.797Z,20.62
2017-09-05T10:19:17.647Z,20.59
2017-09-05T10:20:26.547Z,20.69
2017-09-05T10:21:35.742Z,20.67
2017-09-05T10:22:44.594Z,20.74
2017-09-05T10:23:53.445Z,20.7
2017-09-05T10:25:02.316Z,20.72
2017-09-05T10:26:11.320Z,20.76
2017-09-05T10:27:20.167Z,20.73
2017-09-05T10:28:29.018Z,20.74
2017-09-05T10:29:38.214Z,20.84
2017-09-05T10:30:47.066Z,20.79
2017-09-05T10:31:56.069Z,20.76
2017-09-05T10:33:04.919Z,20.84
2017-09-05T10:34:13.774Z,20.89
2017-09-05T10:35:23.298Z,20.91
2017-09-05T10:36:32.151Z,20.99
2017-09-05T10:37:41.003Z,20.88
2017-09-05T10:38:49.852Z,20.94
2017-09-05T10:39:58.740Z,21.07
2017-09-05T10:41:07.592Z,21.01
2017-09-05T10:42:16.443Z,20.99
2017-09-05T10:43:25.346Z,21.03
2017-09-05T10:44:34.196Z,21.13
2017-09-05T10:45:43.047Z,21.1
2017-09-05T10:46:51.903Z,21.19
2017-09-05T10:48:00.756Z,21.22
2017-09-05T10:49:09.759Z,21.35
2017-09-05T10:50:18.623Z,21.37
2017-09-05T10:51:27.528Z,21.42
2017-09-05T10:52:36.380Z,21.43
2017-09-05T10:53:45.231Z,21.47
2017-09-05T10:54:54.134Z,21.56
2017-09-05T10:56:02.984Z,21.65
2017-09-05T10:57:11.837Z,21.59
2017-09-05T10:58:20.687Z,21.62
2017-09-05T10:59:29.537Z,21.58
2017-09-05T11:00:38.538Z,21.62
2017-09-05T11:01:47.394Z,21.64
2017-09-05T11:02:56.246Z,21.65
2017-09-05T11:04:05.098Z,21.67
2017-09-05T11:05:14.282Z,21.61
2017-09-05T11:06:23.184Z,21.67
2017-09-05T11:07:32.034Z,21.68
2017-09-05T11:08:40.884Z,21.62
2017-09-05T11:09:49.735Z,21.71
2017-09-05T11:10:58.584Z,21.83
2017-09-05T11:12:07.585Z,21.72
2017-09-05T11:13:16.438Z,21.68
2017-09-05T11:14:25.287Z,21.69
2017-09-05T11:15:34.139Z,21.79
2017-09-05T11:16:42.989Z,21.75
2017-09-05T11:17:51.892Z,21.59
2017-09-05T11:19:00.760Z,21.65
2017-09-05T11:20:09.609Z,21.64
2017-09-05T11:21:18.463Z,21.61
2017-09-05T11:22:27.311Z,21.67
2017-09-05T11:23:36.211Z,21.69
2017-09-05T11:24:45.065Z,21.75
2017-09-05T11:25:53.917Z,21.8
2017-09-05T11:27:03.117Z,21.8
2017-09-05T11:28:11.988Z,21.82
2017-09-05T11:29:20.991Z,21.9
2017-09-05T11:30:29.855Z,21.88
2017-09-05T11:31:38.706Z,21.86
2017-09-05T11:32:47.564Z,21.91
2017-09-05T11:33:56.472Z,21.94
2017-09-05T11:35:05.489Z,21.9
2017-09-05T11:36:14.343Z,21.8
2017-09-05T11:37:23.197Z,21.82
2017-09-05T11:38:32.383Z,21.74
2017-09-05T11:39:41.235Z,21.77
2017-09-05T11:40:50.137Z,21.98
2017-09-05T11:41:58.988Z,21.94
2017-09-05T11:43:07.839Z,21.92
2017-09-05T11:44:16.692Z,22.07
2017-09-05T11:45:25.595Z,22.05
2017-09-05T11:46:34.551Z,21.98
2017-09-05T11:47:43.409Z,21.99
2017-09-05T11:48:52.261Z,21.96
2017-09-05T11:50:01.113Z,22.02
2017-09-05T11:51:09.966Z,22.05
2017-09-05T11:52:18.868Z,21.96
2017-09-05T11:53:27.723Z,21.98
2017-09-05T11:54:36.905Z,21.96
2017-09-05T11:55:45.756Z,21.99
2017-09-05T11:56:54.608Z,22.05
2017-09-05T11:58:03.661Z,22
2017-09-05T11:59:12.514Z,21.94
2017-09-05T12:00:21.365Z,22.02
2017-09-05T12:01:30.217Z,21.96
2017-09-05T12:02:39.070Z,22.02
2017-09-05T12:03:48.121Z,21.96
2017-09-05T12:04:56.973Z,22.03
2017-09-05T12:06:05.825Z,22
2017-09-05T12:07:14.676Z,22.06
2017-09-05T12:08:23.530Z,22.06
2017-09-05T12:09:32.535Z,22.2
2017-09-05T12:10:41.389Z,22.21
2017-09-05T12:11:50.571Z,22.24
2017-09-05T12:12:59.760Z,22.35
2017-09-05T12:14:08.622Z,22.33
2017-09-05T12:15:17.618Z,22.37
2017-09-05T12:16:26.469Z,22.33
2017-09-05T12:17:35.322Z,22.3
2017-09-05T12:18:44.173Z,22.37
2017-09-05T12:19:53.366Z,22.35
2017-09-05T12:21:02.260Z,22.28
2017-09-05T12:22:11.113Z,22.21
2017-09-05T12:23:19.968Z,22.17
2017-09-05T12:24:28.821Z,22.25
2017-09-05T12:25:37.670Z,22.35
2017-09-05T12:26:46.521Z,22.31
2017-09-05T12:27:55.372Z,22.28
2017-09-05T12:29:04.223Z,22.33
2017-09-05T12:30:13.075Z,22.33
2017-09-05T12:31:21.926Z,22.33
2017-09-05T12:32:30.876Z,22.36
2017-09-05T12:33:39.728Z,22.35
2017-09-05T12:34:48.580Z,22.33
2017-09-05T12:35:57.432Z,22.4
2017-09-05T12:37:06.285Z,22.49
2017-09-05T12:38:15.395Z,22.47
2017-09-05T12:39:24.239Z,22.47
2017-09-05T12:40:33.096Z,22.46
2017-09-05T12:41:41.949Z,22.43
2017-09-05T12:42:50.800Z,22.36
2017-09-05T12:43:59.754Z,22.39
2017-09-05T12:45:08.605Z,22.33
2017-09-05T12:46:17.456Z,22.28
2017-09-05T12:47:26.307Z,22.27
2017-09-05T12:48:35.160Z,22.17
2017-09-05T12:49:44.159Z,22.21
2017-09-05T12:50:53.009Z,22.18
2017-09-05T12:52:01.926Z,22.2
2017-09-05T12:53:10.782Z,22.25
2017-09-05T12:54:19.634Z,22.18
2017-09-05T12:55:28.637Z,22.2
2017-09-05T12:56:37.492Z,22.27
2017-09-05T12:57:46.476Z,22.09
2017-09-05T12:58:55.347Z,22.05
2017-09-05T13:00:04.201Z,22
2017-09-05T13:01:13.053Z,22
2017-09-05T13:02:21.901Z,21.92
2017-09-05T13:03:30.783Z,21.92
2017-09-05T13:04:39.624Z,21.96
2017-09-05T13:05:48.824Z,22.03
2017-09-05T13:06:57.777Z,22.02
2017-09-05T13:08:06.961Z,22.03
2017-09-05T13:09:15.814Z,22.02
2017-09-05T13:10:24.667Z,22.12
2017-09-05T13:11:33.522Z,22.05
2017-09-05T13:12:42.543Z,22.07
2017-09-05T13:13:51.409Z,22.2
2017-09-05T13:15:00.260Z,22.24
2017-09-05T13:16:09.113Z,22.2
2017-09-05T13:17:17.961Z,22.18
2017-09-05T13:18:26.963Z,22.21
2017-09-05T13:19:35.814Z,22.18
2017-09-05T13:20:44.876Z,22.18
2017-09-05T13:21:53.727Z,22.21
2017-09-05T13:23:02.580Z,22.28
2017-09-05T13:24:11.538Z,22.35
2017-09-05T13:25:20.388Z,22.39
2017-09-05T13:26:29.239Z,22.39
2017-09-05T13:27:38.092Z,22.4
2017-09-05T13:28:47.277Z,22.37
2017-09-05T13:29:56.183Z,22.47
2017-09-05T13:31:05.033Z,22.55
2017-09-05T13:32:13.890Z,22.6
2017-09-05T13:33:22.803Z,22.64
2017-09-05T13:34:31.691Z,22.76
2017-09-05T13:35:40.930Z,22.76
2017-09-05T13:36:49.783Z,22.85
2017-09-05T13:37:58.637Z,22.92
2017-09-05T13:39:07.489Z,22.91
2017-09-05T13:40:16.344Z,22.9
2017-09-05T13:41:25.246Z,23
2017-09-05T13:42:34.098Z,22.83
2017-09-05T13:43:42.950Z,22.77
2017-09-05T13:44:51.824Z,22.73
2017-09-05T13:46:00.725Z,22.7
2017-09-05T13:47:09.856Z,22.8
2017-09-05T13:48:19.079Z,22.83
2017-09-05T13:49:27.934Z,22.75
2017-09-05T13:50:36.786Z,22.73
2017-09-05T13:51:45.640Z,22.8
2017-09-05T13:52:54.547Z,22.82
2017-09-05T13:54:03.401Z,22.77
2017-09-05T13:55:12.251Z,22.86
2017-09-05T13:56:21.102Z,22.86
2017-09-05T13:57:29.953Z,22.9
2017-09-05T13:58:38.804Z,22.85
2017-09-05T13:59:47.657Z,22.77
2017-09-05T14:00:56.510Z,22.83
2017-09-05T14:02:05.362Z,22.88
2017-09-05T14:03:14.215Z,22.88
2017-09-05T14:04:23.168Z,22.83
2017-09-05T14:05:32.023Z,22.9
2017-09-05T14:06:40.874Z,22.9
2017-09-05T14:07:49.724Z,22.79
2017-09-05T14:08:58.576Z,22.8
2017-09-05T14:10:07.477Z,22.75
2017-09-05T14:11:16.329Z,22.73
2017-09-05T14:12:25.531Z,22.9
2017-09-05T14:13:34.385Z,22.8
2017-09-05T14:14:43.235Z,22.79
2017-09-05T14:15:52.189Z,22.83
2017-09-05T14:17:01.038Z,22.82
2017-09-05T14:18:09.890Z,22.82
2017-09-05T14:19:18.742Z,22.91
2017-09-05T14:20:27.590Z,22.77
2017-09-05T14:21:36.542Z,22.73
2017-09-05T14:22:45.393Z,22.73
2017-09-05T14:23:54.244Z,22.77
2017-09-05T14:25:03.097Z,22.76
2017-09-05T14:26:11.949Z,22.61
2017-09-05T14:27:21.000Z,22.54
2017-09-05T14:28:29.850Z,22.49
2017-09-05T14:29:38.701Z,22.49
2017-09-05T14:30:47.551Z,22.46
2017-09-05T14:31:56.400Z,22.52
2017-09-05T14:33:05.403Z,22.42
2017-09-05T14:34:14.253Z,22.39
2017-09-05T14:35:23.103Z,22.33
2017-09-05T14:36:31.953Z,22.3
2017-09-05T14:37:40.804Z,22.31
2017-09-05T14:38:49.660Z,22.18
2017-09-05T14:39:58.525Z,22.24
2017-09-05T14:41:07.386Z,22.21
2017-09-05T14:42:16.249Z,22.15
2017-09-05T14:43:25.166Z,22.09
2017-09-05T14:44:34.028Z,22.1
2017-09-05T14:45:42.896Z,22.18
2017-09-05T14:46:51.760Z,22.14
2017-09-05T14:48:00.616Z,22.12
2017-09-05T14:49:09.470Z,22.14
2017-09-05T14:50:18.328Z,22.09
2017-09-05T14:51:27.519Z,22.14